sensor_id;sensor_type;location;lat;lon;timestamp;P1;durP1;ratioP1;P2;durP2;ratioP2
54438;SDS011;40347;53.848;27.498;2022-10-16T00:03:37;8.9;;;3.4;;
54438;SDS011;40347;53.848;27.498;2022-10-16T00:08:46;8.3;;;3.4;;
54438;SDS011;40347;53.848;27.498;2022-10-16T00:13:48;7.8;;;3.3;;
54438;SDS011;40347;53.848;27.498;2022-10-16T00:18:37;7.5;;;3.4;;
54438;SDS011;40347;53.848;27.498;2022-10-16T00:23:49;7.6;;;3.1;;
54438;SDS011;40347;53.848;27.498;2022-10-16T00:28:37;8;;;3.5;;
54438;SDS011;40347;53.848;27.498;2022-10-16T00:33:48;7.3;;;3.3;;
54438;SDS011;40347;53.848;27.498;2022-10-16T00:38:37;7.7;;;3.6;;
54438;SDS011;40347;53.848;27.498;2022-10-16T00:43:44;8.8;;;3.4;;
54438;SDS011;40347;53.848;27.498;2022-10-16T00:48:49;7.9;;;3.5;;
54438;SDS011;40347;53.848;27.498;2022-10-16T00:53:45;7.8;;;3.6;;
54438;SDS011;40347;53.848;27.498;2022-10-16T00:59:06;8.7;;;3.6;;
54438;SDS011;40347;53.848;27.498;2022-10-16T01:03:55;7.4;;;3.5;;
54438;SDS011;40347;53.848;27.498;2022-10-16T01:08:49;8.4;;;3.7;;
54438;SDS011;40347;53.848;27.498;2022-10-16T01:13:46;8;;;3.6;;
54438;SDS011;40347;53.848;27.498;2022-10-16T01:18:39;8.1;;;3.5;;
54438;SDS011;40347;53.848;27.498;2022-10-16T01:23:48;8;;;3.8;;
54438;SDS011;40347;53.848;27.498;2022-10-16T01:28:44;8.8;;;3.7;;
54438;SDS011;40347;53.848;27.498;2022-10-16T01:34:15;8.8;;;3.7;;
54438;SDS011;40347;53.848;27.498;2022-10-16T01:38:38;8.2;;;3.6;;
54438;SDS011;40347;53.848;27.498;2022-10-16T01:43:58;8.7;;;3.9;;
54438;SDS011;40347;53.848;27.498;2022-10-16T01:48:37;8.6;;;3.7;;
54438;SDS011;40347;53.848;27.498;2022-10-16T01:53:45;10;;;4;;
54438;SDS011;40347;53.848;27.498;2022-10-16T01:58:39;9;;;3.8;;
54438;SDS011;40347;53.848;27.498;2022-10-16T02:03:58;8.7;;;3.7;;
54438;SDS011;40347;53.848;27.498;2022-10-16T02:08:37;7.9;;;3.6;;
54438;SDS011;40347;53.848;27.498;2022-10-16T02:14:06;8.2;;;3.7;;
54438;SDS011;40347;53.848;27.498;2022-10-16T02:18:38;9.6;;;3.8;;
54438;SDS011;40347;53.848;27.498;2022-10-16T02:23:42;10.3;;;4.1;;
54438;SDS011;40347;53.848;27.498;2022-10-16T02:28:46;9.5;;;3.9;;
54438;SDS011;40347;53.848;27.498;2022-10-16T02:33:38;8.5;;;3.7;;
54438;SDS011;40347;53.848;27.498;2022-10-16T02:38:57;9.5;;;3.9;;
54438;SDS011;40347;53.848;27.498;2022-10-16T02:43:47;7.9;;;3.5;;
54438;SDS011;40347;53.848;27.498;2022-10-16T02:48:47;9.1;;;3.9;;
54438;SDS011;40347;53.848;27.498;2022-10-16T02:53:37;9.3;;;3.9;;
54438;SDS011;40347;53.848;27.498;2022-10-16T02:58:38;9.2;;;3.8;;
54438;SDS011;40347;53.848;27.498;2022-10-16T03:03:47;8.7;;;4;;
54438;SDS011;40347;53.848;27.498;2022-10-16T03:08:45;10.2;;;3.7;;
54438;SDS011;40347;53.848;27.498;2022-10-16T03:13:45;10.4;;;3.8;;
54438;SDS011;40347;53.848;27.498;2022-10-16T03:18:53;9;;;3.5;;
54438;SDS011;40347;53.848;27.498;2022-10-16T03:23:37;7.8;;;3.6;;
54438;SDS011;40347;53.848;27.498;2022-10-16T03:28:37;8.7;;;4;;
54438;SDS011;40347;53.848;27.498;2022-10-16T03:33:47;9.9;;;4.2;;
54438;SDS011;40347;53.848;27.498;2022-10-16T03:38:37;10.1;;;4;;
54438;SDS011;40347;53.848;27.498;2022-10-16T03:43:37;8.9;;;3.8;;
54438;SDS011;40347;53.848;27.498;2022-10-16T03:48:47;8.7;;;3.9;;
54438;SDS011;40347;53.848;27.498;2022-10-16T03:53:55;9.5;;;4;;
54438;SDS011;40347;53.848;27.498;2022-10-16T03:58:55;9.8;;;4.2;;
54438;SDS011;40347;53.848;27.498;2022-10-16T04:03:37;9.6;;;4.1;;
54438;SDS011;40347;53.848;27.498;2022-10-16T04:08:37;10.6;;;4.2;;
54438;SDS011;40347;53.848;27.498;2022-10-16T04:13:55;10.8;;;4.3;;
54438;SDS011;40347;53.848;27.498;2022-10-16T04:18:45;10.2;;;4.4;;
54438;SDS011;40347;53.848;27.498;2022-10-16T04:23:47;12.6;;;4.5;;
54438;SDS011;40347;53.848;27.498;2022-10-16T04:28:47;10.1;;;4.3;;
54438;SDS011;40347;53.848;27.498;2022-10-16T04:33:47;10.2;;;4.3;;
54438;SDS011;40347;53.848;27.498;2022-10-16T04:38:57;9.5;;;4.4;;
54438;SDS011;40347;53.848;27.498;2022-10-16T04:43:37;9.6;;;4.4;;
54438;SDS011;40347;53.848;27.498;2022-10-16T04:48:45;9.8;;;4.5;;
54438;SDS011;40347;53.848;27.498;2022-10-16T04:53:37;10.7;;;4.3;;
54438;SDS011;40347;53.848;27.498;2022-10-16T04:58:59;12.4;;;4.4;;
54438;SDS011;40347;53.848;27.498;2022-10-16T05:03:55;9.6;;;4.4;;
54438;SDS011;40347;53.848;27.498;2022-10-16T05:08:45;11.4;;;4.5;;
54438;SDS011;40347;53.848;27.498;2022-10-16T05:13:47;8.8;;;4.4;;
54438;SDS011;40347;53.848;27.498;2022-10-16T05:18:47;11.5;;;4.5;;
54438;SDS011;40347;53.848;27.498;2022-10-16T05:23:47;12.6;;;4.6;;
54438;SDS011;40347;53.848;27.498;2022-10-16T05:28:37;8.5;;;4.5;;
54438;SDS011;40347;53.848;27.498;2022-10-16T05:33:47;11.4;;;4.3;;
54438;SDS011;40347;53.848;27.498;2022-10-16T05:38:45;11.8;;;4.4;;
54438;SDS011;40347;53.848;27.498;2022-10-16T05:43:45;10.8;;;4.6;;
54438;SDS011;40347;53.848;27.498;2022-10-16T05:48:55;12.6;;;4.7;;
54438;SDS011;40347;53.848;27.498;2022-10-16T05:53:38;11.5;;;4.7;;
54438;SDS011;40347;53.848;27.498;2022-10-16T05:58:38;11;;;4.8;;
54438;SDS011;40347;53.848;27.498;2022-10-16T06:03:47;11;;;4.6;;
54438;SDS011;40347;53.848;27.498;2022-10-16T06:08:37;10.7;;;4.2;;
54438;SDS011;40347;53.848;27.498;2022-10-16T06:13:58;9.5;;;4.3;;
54438;SDS011;40347;53.848;27.498;2022-10-16T06:18:59;12.3;;;4.4;;
54438;SDS011;40347;53.848;27.498;2022-10-16T06:23:37;10.2;;;4.6;;
54438;SDS011;40347;53.848;27.498;2022-10-16T06:28:56;9.4;;;4.2;;
54438;SDS011;40347;53.848;27.498;2022-10-16T06:33:49;11.5;;;5;;
54438;SDS011;40347;53.848;27.498;2022-10-16T06:38:55;11.2;;;4.7;;
54438;SDS011;40347;53.848;27.498;2022-10-16T06:43:37;13;;;4.7;;
54438;SDS011;40347;53.848;27.498;2022-10-16T06:48:45;12;;;4.6;;
54438;SDS011;40347;53.848;27.498;2022-10-16T06:53:38;10.5;;;4.4;;
54438;SDS011;40347;53.848;27.498;2022-10-16T06:58:55;10.5;;;4.6;;
54438;SDS011;40347;53.848;27.498;2022-10-16T07:03:47;10.4;;;4.8;;
54438;SDS011;40347;53.848;27.498;2022-10-16T07:08:47;10.9;;;4.5;;
54438;SDS011;40347;53.848;27.498;2022-10-16T07:13:38;9.9;;;4.4;;
54438;SDS011;40347;53.848;27.498;2022-10-16T07:18:47;10.5;;;4.6;;
54438;SDS011;40347;53.848;27.498;2022-10-16T07:23:37;37.4;;;11.2;;
54438;SDS011;40347;53.848;27.498;2022-10-16T07:28:38;31.4;;;11.6;;
54438;SDS011;40347;53.848;27.498;2022-10-16T07:33:46;18.3;;;7.2;;
54438;SDS011;40347;53.848;27.498;2022-10-16T07:38:37;11;;;5.5;;
54438;SDS011;40347;53.848;27.498;2022-10-16T07:43:37;10;;;4.8;;
54438;SDS011;40347;53.848;27.498;2022-10-16T07:48:37;11;;;4.8;;
54438;SDS011;40347;53.848;27.498;2022-10-16T07:53:37;11.2;;;5.2;;
54438;SDS011;40347;53.848;27.498;2022-10-16T07:58:38;11.1;;;5.2;;
54438;SDS011;40347;53.848;27.498;2022-10-16T08:03:37;9.6;;;4.5;;
54438;SDS011;40347;53.848;27.498;2022-10-16T08:08:37;9.9;;;5;;
54438;SDS011;40347;53.848;27.498;2022-10-16T08:13:37;12.1;;;5.2;;
54438;SDS011;40347;53.848;27.498;2022-10-16T08:18:46;13.3;;;5.2;;
54438;SDS011;40347;53.848;27.498;2022-10-16T08:23:37;11.1;;;4.9;;
54438;SDS011;40347;53.848;27.498;2022-10-16T08:28:59;13.3;;;5;;
54438;SDS011;40347;53.848;27.498;2022-10-16T08:33:45;11.3;;;4.9;;
54438;SDS011;40347;53.848;27.498;2022-10-16T08:38:57;12.2;;;5.4;;
54438;SDS011;40347;53.848;27.498;2022-10-16T08:43:41;12.5;;;5.7;;
54438;SDS011;40347;53.848;27.498;2022-10-16T08:48:59;11.1;;;5.6;;
54438;SDS011;40347;53.848;27.498;2022-10-16T08:53:40;14.5;;;5.5;;
54438;SDS011;40347;53.848;27.498;2022-10-16T08:58:48;11.8;;;5.5;;
54438;SDS011;40347;53.848;27.498;2022-10-16T09:03:52;12.1;;;5.5;;
54438;SDS011;40347;53.848;27.498;2022-10-16T09:09:01;12;;;5.9;;
54438;SDS011;40347;53.848;27.498;2022-10-16T09:13:49;12.6;;;5.8;;
54438;SDS011;40347;53.848;27.498;2022-10-16T09:18:48;14.6;;;6;;
54438;SDS011;40347;53.848;27.498;2022-10-16T09:23:48;13.6;;;6.1;;
54438;SDS011;40347;53.848;27.498;2022-10-16T09:28:53;11.7;;;5.9;;
54438;SDS011;40347;53.848;27.498;2022-10-16T09:33:37;15.2;;;6.4;;
54438;SDS011;40347;53.848;27.498;2022-10-16T09:38:38;13.1;;;6.1;;
54438;SDS011;40347;53.848;27.498;2022-10-16T09:43:39;12.1;;;5.9;;
54438;SDS011;40347;53.848;27.498;2022-10-16T09:48:47;12.8;;;5.8;;
54438;SDS011;40347;53.848;27.498;2022-10-16T09:53:57;12;;;5.9;;
54438;SDS011;40347;53.848;27.498;2022-10-16T09:58:56;13.5;;;5.8;;
54438;SDS011;40347;53.848;27.498;2022-10-16T10:03:47;11.2;;;5.9;;
54438;SDS011;40347;53.848;27.498;2022-10-16T10:08:55;12.1;;;6.1;;
54438;SDS011;40347;53.848;27.498;2022-10-16T10:13:37;13.1;;;5.9;;
54438;SDS011;40347;53.848;27.498;2022-10-16T10:18:57;13.7;;;5.9;;
54438;SDS011;40347;53.848;27.498;2022-10-16T10:24:10;14.7;;;6.1;;
54438;SDS011;40347;53.848;27.498;2022-10-16T10:28:55;12.3;;;5.8;;
54438;SDS011;40347;53.848;27.498;2022-10-16T10:33:40;12.3;;;5.9;;
54438;SDS011;40347;53.848;27.498;2022-10-16T10:38:49;12.3;;;6.2;;
54438;SDS011;40347;53.848;27.498;2022-10-16T10:43:40;13.8;;;6.1;;
54438;SDS011;40347;53.848;27.498;2022-10-16T10:48:43;14.2;;;6.1;;
54438;SDS011;40347;53.848;27.498;2022-10-16T10:53:49;11.8;;;5.9;;
54438;SDS011;40347;53.848;27.498;2022-10-16T10:58:42;13.9;;;5.8;;
54438;SDS011;40347;53.848;27.498;2022-10-16T11:04:01;13.8;;;6;;
54438;SDS011;40347;53.848;27.498;2022-10-16T11:08:48;13.7;;;6;;
54438;SDS011;40347;53.848;27.498;2022-10-16T11:13:38;11.5;;;5.2;;
54438;SDS011;40347;53.848;27.498;2022-10-16T11:19:11;12.3;;;5.4;;
54438;SDS011;40347;53.848;27.498;2022-10-16T11:23:39;10.7;;;4.8;;
54438;SDS011;40347;53.848;27.498;2022-10-16T11:28:38;12.6;;;4.8;;
54438;SDS011;40347;53.848;27.498;2022-10-16T11:33:47;10.6;;;4.1;;
54438;SDS011;40347;53.848;27.498;2022-10-16T11:39:08;13;;;4.4;;
54438;SDS011;40347;53.848;27.498;2022-10-16T11:43:38;10;;;4.2;;
54438;SDS011;40347;53.848;27.498;2022-10-16T11:48:38;10.9;;;4.2;;
54438;SDS011;40347;53.848;27.498;2022-10-16T11:53:39;9.4;;;4.1;;
54438;SDS011;40347;53.848;27.498;2022-10-16T11:58:40;11.1;;;4.4;;
54438;SDS011;40347;53.848;27.498;2022-10-16T12:03:46;11;;;4.4;;
54438;SDS011;40347;53.848;27.498;2022-10-16T12:08:38;9.9;;;4.5;;
54438;SDS011;40347;53.848;27.498;2022-10-16T12:14:03;9.6;;;4.6;;
54438;SDS011;40347;53.848;27.498;2022-10-16T12:18:50;9.1;;;4.5;;
54438;SDS011;40347;53.848;27.498;2022-10-16T12:24:20;12.9;;;5;;
54438;SDS011;40347;53.848;27.498;2022-10-16T12:28:56;11.2;;;4.8;;
54438;SDS011;40347;53.848;27.498;2022-10-16T12:33:39;12.2;;;5.2;;
54438;SDS011;40347;53.848;27.498;2022-10-16T12:38:48;15.3;;;5.1;;
54438;SDS011;40347;53.848;27.498;2022-10-16T12:43:39;12.4;;;5;;
54438;SDS011;40347;53.848;27.498;2022-10-16T12:48:38;12.4;;;4.9;;
54438;SDS011;40347;53.848;27.498;2022-10-16T12:53:58;11.2;;;4.6;;
54438;SDS011;40347;53.848;27.498;2022-10-16T12:58:42;10.8;;;4.5;;
54438;SDS011;40347;53.848;27.498;2022-10-16T13:03:43;9.1;;;4.1;;
54438;SDS011;40347;53.848;27.498;2022-10-16T13:08:42;10;;;4;;
54438;SDS011;40347;53.848;27.498;2022-10-16T13:13:41;8.7;;;4.3;;
54438;SDS011;40347;53.848;27.498;2022-10-16T13:18:40;10.7;;;4.3;;
54438;SDS011;40347;53.848;27.498;2022-10-16T13:23:57;9;;;4.1;;
54438;SDS011;40347;53.848;27.498;2022-10-16T13:28:48;13.8;;;4.4;;
54438;SDS011;40347;53.848;27.498;2022-10-16T13:33:38;11.6;;;4.3;;
54438;SDS011;40347;53.848;27.498;2022-10-16T13:38:48;9.7;;;4.3;;
54438;SDS011;40347;53.848;27.498;2022-10-16T13:44:00;10.9;;;4.1;;
54438;SDS011;40347;53.848;27.498;2022-10-16T13:48:56;10.9;;;4.1;;
54438;SDS011;40347;53.848;27.498;2022-10-16T13:53:50;10.8;;;4.4;;
54438;SDS011;40347;53.848;27.498;2022-10-16T13:58:57;11.9;;;4.3;;
54438;SDS011;40347;53.848;27.498;2022-10-16T14:03:38;10.4;;;3.9;;
54438;SDS011;40347;53.848;27.498;2022-10-16T14:09:12;7.8;;;3.5;;
54438;SDS011;40347;53.848;27.498;2022-10-16T14:13:38;9.4;;;3.7;;
54438;SDS011;40347;53.848;27.498;2022-10-16T14:18:38;9.8;;;3.7;;
54438;SDS011;40347;53.848;27.498;2022-10-16T14:23:38;10;;;3.8;;
54438;SDS011;40347;53.848;27.498;2022-10-16T14:28:38;8.6;;;3.9;;
54438;SDS011;40347;53.848;27.498;2022-10-16T14:33:38;10.4;;;3.9;;
54438;SDS011;40347;53.848;27.498;2022-10-16T14:38:49;10.2;;;4.2;;
54438;SDS011;40347;53.848;27.498;2022-10-16T14:44:00;10.8;;;4.2;;
54438;SDS011;40347;53.848;27.498;2022-10-16T14:48:39;9.5;;;4;;
54438;SDS011;40347;53.848;27.498;2022-10-16T14:53:56;11;;;4.1;;
54438;SDS011;40347;53.848;27.498;2022-10-16T14:58:38;8.2;;;3.7;;
54438;SDS011;40347;53.848;27.498;2022-10-16T15:03:46;10.2;;;3.8;;
54438;SDS011;40347;53.848;27.498;2022-10-16T15:08:38;12.9;;;4.3;;
54438;SDS011;40347;53.848;27.498;2022-10-16T15:13:38;10.1;;;4.4;;
54438;SDS011;40347;53.848;27.498;2022-10-16T15:18:38;11.5;;;4.4;;
54438;SDS011;40347;53.848;27.498;2022-10-16T15:23:48;12.7;;;4.3;;
54438;SDS011;40347;53.848;27.498;2022-10-16T15:28:56;11.8;;;4.3;;
54438;SDS011;40347;53.848;27.498;2022-10-16T15:33:49;11.3;;;4.6;;
54438;SDS011;40347;53.848;27.498;2022-10-16T15:38:38;11.4;;;4.5;;
54438;SDS011;40347;53.848;27.498;2022-10-16T15:43:38;11.6;;;4.6;;
54438;SDS011;40347;53.848;27.498;2022-10-16T15:48:46;12.2;;;4.7;;
54438;SDS011;40347;53.848;27.498;2022-10-16T15:53:46;11.8;;;5;;
54438;SDS011;40347;53.848;27.498;2022-10-16T15:58:38;10.9;;;4.7;;
54438;SDS011;40347;53.848;27.498;2022-10-16T16:03:38;11.1;;;5;;
54438;SDS011;40347;53.848;27.498;2022-10-16T16:09:00;12.5;;;5.7;;
54438;SDS011;40347;53.848;27.498;2022-10-16T16:13:38;13.7;;;5.3;;
54438;SDS011;40347;53.848;27.498;2022-10-16T16:18:48;12.5;;;5;;
54438;SDS011;40347;53.848;27.498;2022-10-16T16:23:56;12.3;;;4.7;;
54438;SDS011;40347;53.848;27.498;2022-10-16T16:28:38;14.3;;;4.9;;
54438;SDS011;40347;53.848;27.498;2022-10-16T16:33:46;12.6;;;4.9;;
54438;SDS011;40347;53.848;27.498;2022-10-16T16:38:38;11.7;;;4.5;;
54438;SDS011;40347;53.848;27.498;2022-10-16T16:43:38;10.3;;;4.6;;
54438;SDS011;40347;53.848;27.498;2022-10-16T16:49:00;10.3;;;4.2;;
54438;SDS011;40347;53.848;27.498;2022-10-16T16:53:38;10.3;;;4.4;;
54438;SDS011;40347;53.848;27.498;2022-10-16T16:58:38;10.5;;;4.5;;
54438;SDS011;40347;53.848;27.498;2022-10-16T17:03:38;12.5;;;4.5;;
54438;SDS011;40347;53.848;27.498;2022-10-16T17:08:38;9.2;;;4.2;;
54438;SDS011;40347;53.848;27.498;2022-10-16T17:13:58;10.2;;;4.2;;
54438;SDS011;40347;53.848;27.498;2022-10-16T17:18:38;7.8;;;3.6;;
54438;SDS011;40347;53.848;27.498;2022-10-16T17:23:38;9.3;;;3.7;;
54438;SDS011;40347;53.848;27.498;2022-10-16T17:28:49;8.4;;;3.6;;
54438;SDS011;40347;53.848;27.498;2022-10-16T17:33:56;8.7;;;3.4;;
54438;SDS011;40347;53.848;27.498;2022-10-16T17:38:39;9.6;;;3.4;;
54438;SDS011;40347;53.848;27.498;2022-10-16T17:43:56;8.5;;;3.4;;
54438;SDS011;40347;53.848;27.498;2022-10-16T17:48:49;8.3;;;3.5;;
54438;SDS011;40347;53.848;27.498;2022-10-16T17:53:38;9.9;;;4;;
54438;SDS011;40347;53.848;27.498;2022-10-16T17:58:48;9.2;;;3.8;;
54438;SDS011;40347;53.848;27.498;2022-10-16T18:03:47;8.3;;;3.8;;
54438;SDS011;40347;53.848;27.498;2022-10-16T18:08:46;11;;;4;;
54438;SDS011;40347;53.848;27.498;2022-10-16T18:13:56;9.8;;;3.9;;
54438;SDS011;40347;53.848;27.498;2022-10-16T18:18:46;8.7;;;3.8;;
54438;SDS011;40347;53.848;27.498;2022-10-16T18:23:38;10.1;;;4;;
54438;SDS011;40347;53.848;27.498;2022-10-16T18:28:38;9.1;;;3.7;;
54438;SDS011;40347;53.848;27.498;2022-10-16T18:33:38;9.3;;;4.1;;
54438;SDS011;40347;53.848;27.498;2022-10-16T18:39:03;9.6;;;4.1;;
54438;SDS011;40347;53.848;27.498;2022-10-16T18:43:38;10.1;;;3.8;;
54438;SDS011;40347;53.848;27.498;2022-10-16T18:48:46;8.6;;;3.7;;
54438;SDS011;40347;53.848;27.498;2022-10-16T18:53:56;8.6;;;3.4;;
54438;SDS011;40347;53.848;27.498;2022-10-16T18:58:46;8.5;;;3.6;;
54438;SDS011;40347;53.848;27.498;2022-10-16T19:03:46;10.7;;;3.6;;
54438;SDS011;40347;53.848;27.498;2022-10-16T19:08:48;7.8;;;3.3;;
54438;SDS011;40347;53.848;27.498;2022-10-16T19:13:38;10.2;;;3.6;;
54438;SDS011;40347;53.848;27.498;2022-10-16T19:18:38;9.3;;;3.5;;
54438;SDS011;40347;53.848;27.498;2022-10-16T19:23:38;7.9;;;3.6;;
54438;SDS011;40347;53.848;27.498;2022-10-16T19:28:46;8.6;;;3.8;;
54438;SDS011;40347;53.848;27.498;2022-10-16T19:33:49;11.8;;;4;;
54438;SDS011;40347;53.848;27.498;2022-10-16T19:38:50;9.9;;;3.9;;
54438;SDS011;40347;53.848;27.498;2022-10-16T19:43:38;9.3;;;3.8;;
54438;SDS011;40347;53.848;27.498;2022-10-16T19:48:38;7.7;;;3.5;;
54438;SDS011;40347;53.848;27.498;2022-10-16T19:53:46;8.6;;;3.6;;
54438;SDS011;40347;53.848;27.498;2022-10-16T19:59:12;8;;;3.6;;
54438;SDS011;40347;53.848;27.498;2022-10-16T20:03:58;8.9;;;3.3;;
54438;SDS011;40347;53.848;27.498;2022-10-16T20:08:38;8.6;;;3.4;;
54438;SDS011;40347;53.848;27.498;2022-10-16T20:13:48;9.8;;;3.5;;
54438;SDS011;40347;53.848;27.498;2022-10-16T20:18:38;10.8;;;3.5;;
54438;SDS011;40347;53.848;27.498;2022-10-16T20:23:54;9.4;;;3.2;;
54438;SDS011;40347;53.848;27.498;2022-10-16T20:28:38;8.6;;;3.6;;
54438;SDS011;40347;53.848;27.498;2022-10-16T20:33:38;11.6;;;4.1;;
54438;SDS011;40347;53.848;27.498;2022-10-16T20:38:58;7.2;;;3;;
54438;SDS011;40347;53.848;27.498;2022-10-16T20:43:38;9.6;;;3.3;;
54438;SDS011;40347;53.848;27.498;2022-10-16T20:48:48;7.6;;;3.5;;
54438;SDS011;40347;53.848;27.498;2022-10-16T20:53:38;7.7;;;3.4;;
54438;SDS011;40347;53.848;27.498;2022-10-16T20:58:38;7.5;;;3.2;;
54438;SDS011;40347;53.848;27.498;2022-10-16T21:03:59;7.4;;;3.3;;
54438;SDS011;40347;53.848;27.498;2022-10-16T21:08:48;8.7;;;3.5;;
54438;SDS011;40347;53.848;27.498;2022-10-16T21:13:49;9.8;;;3.6;;
54438;SDS011;40347;53.848;27.498;2022-10-16T21:18:50;7.8;;;3.7;;
54438;SDS011;40347;53.848;27.498;2022-10-16T21:23:38;8.2;;;3.3;;
54438;SDS011;40347;53.848;27.498;2022-10-16T21:28:38;7.2;;;3.1;;
54438;SDS011;40347;53.848;27.498;2022-10-16T21:33:38;7.2;;;3.2;;
54438;SDS011;40347;53.848;27.498;2022-10-16T21:38:59;6.5;;;3.2;;
54438;SDS011;40347;53.848;27.498;2022-10-16T21:43:38;7.7;;;3.2;;
54438;SDS011;40347;53.848;27.498;2022-10-16T21:48:51;9.1;;;3.2;;
54438;SDS011;40347;53.848;27.498;2022-10-16T21:53:38;8;;;3.2;;
54438;SDS011;40347;53.848;27.498;2022-10-16T21:59:02;8.2;;;3.4;;
54438;SDS011;40347;53.848;27.498;2022-10-16T22:03:38;7.9;;;3.4;;
54438;SDS011;40347;53.848;27.498;2022-10-16T22:08:49;8.4;;;3.3;;
54438;SDS011;40347;53.848;27.498;2022-10-16T22:14:13;7.8;;;3.1;;
54438;SDS011;40347;53.848;27.498;2022-10-16T22:18:38;7.2;;;3.4;;
54438;SDS011;40347;53.848;27.498;2022-10-16T22:24:00;8;;;3.4;;
54438;SDS011;40347;53.848;27.498;2022-10-16T22:28:38;8.5;;;3.4;;
54438;SDS011;40347;53.848;27.498;2022-10-16T22:33:38;7.4;;;3.2;;
54438;SDS011;40347;53.848;27.498;2022-10-16T22:38:38;8.3;;;3.4;;
54438;SDS011;40347;53.848;27.498;2022-10-16T22:43:38;7.2;;;3.4;;
54438;SDS011;40347;53.848;27.498;2022-10-16T22:48:38;7.7;;;3.4;;
54438;SDS011;40347;53.848;27.498;2022-10-16T22:53:48;8.8;;;3.5;;
54438;SDS011;40347;53.848;27.498;2022-10-16T22:58:46;7.9;;;3.5;;
54438;SDS011;40347;53.848;27.498;2022-10-16T23:04:06;9.1;;;3.5;;
54438;SDS011;40347;53.848;27.498;2022-10-16T23:08:38;8;;;3.6;;
54438;SDS011;40347;53.848;27.498;2022-10-16T23:13:38;8.9;;;3.6;;
54438;SDS011;40347;53.848;27.498;2022-10-16T23:18:48;9.2;;;3.7;;
54438;SDS011;40347;53.848;27.498;2022-10-16T23:23:54;8.3;;;3.8;;
54438;SDS011;40347;53.848;27.498;2022-10-16T23:28:56;9.4;;;3.9;;
54438;SDS011;40347;53.848;27.498;2022-10-16T23:33:46;9.2;;;3.9;;
54438;SDS011;40347;53.848;27.498;2022-10-16T23:38:38;8.6;;;3.6;;
54438;SDS011;40347;53.848;27.498;2022-10-16T23:43:38;10;;;3.8;;
54438;SDS011;40347;53.848;27.498;2022-10-16T23:48:46;8.7;;;3.8;;
54438;SDS011;40347;53.848;27.498;2022-10-16T23:53:38;8.6;;;4;;
54438;SDS011;40347;53.848;27.498;2022-10-16T23:59:06;10;;;4;;
